sensor_id;sensor_type;location;lat;lon;timestamp;temperature;humidity
22145;DHT22;11238;48.730;11.566;2023-02-05T00:01:15;-1.80;99.90
22145;DHT22;11238;48.730;11.566;2023-02-05T00:03:40;-1.80;99.90
22145;DHT22;11238;48.730;11.566;2023-02-05T00:06:07;-1.80;99.90
22145;DHT22;11238;48.730;11.566;2023-02-05T00:08:33;-1.80;99.90
22145;DHT22;11238;48.730;11.566;2023-02-05T00:10:59;-1.80;99.90
22145;DHT22;11238;48.730;11.566;2023-02-05T00:13:32;-1.90;99.90
22145;DHT22;11238;48.730;11.566;2023-02-05T00:15:58;-2.00;99.90
22145;DHT22;11238;48.730;11.566;2023-02-05T00:18:23;-2.00;99.90
22145;DHT22;11238;48.730;11.566;2023-02-05T00:20:49;-2.00;99.90
22145;DHT22;11238;48.730;11.566;2023-02-05T00:23:15;-2.00;99.90
22145;DHT22;11238;48.730;11.566;2023-02-05T00:25:44;-2.00;99.90
22145;DHT22;11238;48.730;11.566;2023-02-05T00:28:10;-2.00;99.90
22145;DHT22;11238;48.730;11.566;2023-02-05T00:30:39;-2.00;99.90
22145;DHT22;11238;48.730;11.566;2023-02-05T00:33:05;-2.00;99.90
22145;DHT22;11238;48.730;11.566;2023-02-05T00:35:31;-2.00;99.90
22145;DHT22;11238;48.730;11.566;2023-02-05T00:37:57;-2.00;99.90
22145;DHT22;11238;48.730;11.566;2023-02-05T00:40:22;-2.00;99.90
22145;DHT22;11238;48.730;11.566;2023-02-05T00:42:48;-2.00;99.90
22145;DHT22;11238;48.730;11.566;2023-02-05T00:45:14;-2.00;99.90
22145;DHT22;11238;48.730;11.566;2023-02-05T00:47:40;-2.10;99.90
22145;DHT22;11238;48.730;11.566;2023-02-05T00:50:06;-2.20;99.90
22145;DHT22;11238;48.730;11.566;2023-02-05T00:52:32;-2.20;99.90
22145;DHT22;11238;48.730;11.566;2023-02-05T00:54:58;-2.10;99.90
22145;DHT22;11238;48.730;11.566;2023-02-05T00:57:24;-2.20;99.90
22145;DHT22;11238;48.730;11.566;2023-02-05T00:59:53;-2.20;99.90
22145;DHT22;11238;48.730;11.566;2023-02-05T01:02:21;-2.30;99.90
22145;DHT22;11238;48.730;11.566;2023-02-05T01:04:51;-2.30;99.90
22145;DHT22;11238;48.730;11.566;2023-02-05T01:07:18;-2.30;99.90
22145;DHT22;11238;48.730;11.566;2023-02-05T01:09:44;-2.30;99.90
22145;DHT22;11238;48.730;11.566;2023-02-05T01:12:11;-2.40;99.90
22145;DHT22;11238;48.730;11.566;2023-02-05T01:14:41;-2.50;99.90
22145;DHT22;11238;48.730;11.566;2023-02-05T01:17:09;-2.60;99.90
22145;DHT22;11238;48.730;11.566;2023-02-05T01:19:39;-2.60;99.90
22145;DHT22;11238;48.730;11.566;2023-02-05T01:22:04;-2.60;99.90
22145;DHT22;11238;48.730;11.566;2023-02-05T01:24:30;-2.60;99.90
22145;DHT22;11238;48.730;11.566;2023-02-05T01:26:57;-2.60;99.90
22145;DHT22;11238;48.730;11.566;2023-02-05T01:29:25;-2.60;99.90
22145;DHT22;11238;48.730;11.566;2023-02-05T01:31:51;-2.60;99.90
22145;DHT22;11238;48.730;11.566;2023-02-05T01:34:17;-2.60;99.90
22145;DHT22;11238;48.730;11.566;2023-02-05T01:36:43;-2.60;99.90
22145;DHT22;11238;48.730;11.566;2023-02-05T01:39:09;-2.60;99.90
22145;DHT22;11238;48.730;11.566;2023-02-05T01:41:35;-2.60;99.90
22145;DHT22;11238;48.730;11.566;2023-02-05T01:44:19;-2.60;99.90
22145;DHT22;11238;48.730;11.566;2023-02-05T01:46:51;-2.60;99.90
22145;DHT22;11238;48.730;11.566;2023-02-05T01:49:30;-2.60;99.90
22145;DHT22;11238;48.730;11.566;2023-02-05T01:52:02;-2.70;99.90
22145;DHT22;11238;48.730;11.566;2023-02-05T01:54:31;-2.60;99.90
22145;DHT22;11238;48.730;11.566;2023-02-05T01:57:05;-2.60;99.90
22145;DHT22;11238;48.730;11.566;2023-02-05T01:59:35;-2.60;99.90
22145;DHT22;11238;48.730;11.566;2023-02-05T02:02:02;-2.60;99.90
22145;DHT22;11238;48.730;11.566;2023-02-05T02:04:44;-2.60;99.90
22145;DHT22;11238;48.730;11.566;2023-02-05T02:07:18;-2.60;99.90
22145;DHT22;11238;48.730;11.566;2023-02-05T02:09:47;-2.60;99.90
22145;DHT22;11238;48.730;11.566;2023-02-05T02:12:17;-2.60;99.90
22145;DHT22;11238;48.730;11.566;2023-02-05T02:14:48;-2.60;99.90
22145;DHT22;11238;48.730;11.566;2023-02-05T02:17:15;-2.60;99.90
22145;DHT22;11238;48.730;11.566;2023-02-05T02:19:59;-2.60;99.90
22145;DHT22;11238;48.730;11.566;2023-02-05T02:31:24;-2.70;99.90
22145;DHT22;11238;48.730;11.566;2023-02-05T02:34:14;-2.70;99.90
22145;DHT22;11238;48.730;11.566;2023-02-05T02:36:55;-2.70;99.90
22145;DHT22;11238;48.730;11.566;2023-02-05T02:39:41;-2.70;99.90
22145;DHT22;11238;48.730;11.566;2023-02-05T02:42:17;-2.70;99.90
22145;DHT22;11238;48.730;11.566;2023-02-05T02:45:00;-2.70;99.90
22145;DHT22;11238;48.730;11.566;2023-02-05T02:47:33;-2.70;99.90
22145;DHT22;11238;48.730;11.566;2023-02-05T02:50:05;-2.70;99.90
22145;DHT22;11238;48.730;11.566;2023-02-05T02:52:36;-2.70;99.90
22145;DHT22;11238;48.730;11.566;2023-02-05T02:55:06;-2.70;99.90
22145;DHT22;11238;48.730;11.566;2023-02-05T02:57:38;-2.70;99.90
22145;DHT22;11238;48.730;11.566;2023-02-05T03:00:13;-2.80;99.90
22145;DHT22;11238;48.730;11.566;2023-02-05T03:02:42;-2.70;99.90
22145;DHT22;11238;48.730;11.566;2023-02-05T03:05:14;-2.80;99.90
22145;DHT22;11238;48.730;11.566;2023-02-05T03:07:46;-2.80;99.90
22145;DHT22;11238;48.730;11.566;2023-02-05T03:10:45;-2.80;99.90
22145;DHT22;11238;48.730;11.566;2023-02-05T03:13:13;-2.80;99.90
22145;DHT22;11238;48.730;11.566;2023-02-05T03:15:43;-2.90;99.90
22145;DHT22;11238;48.730;11.566;2023-02-05T03:18:11;-3.00;99.90
22145;DHT22;11238;48.730;11.566;2023-02-05T03:20:56;-3.00;99.90
22145;DHT22;11238;48.730;11.566;2023-02-05T03:23:23;-3.00;99.90
22145;DHT22;11238;48.730;11.566;2023-02-05T03:25:50;-3.10;99.90
22145;DHT22;11238;48.730;11.566;2023-02-05T03:28:21;-3.00;99.90
22145;DHT22;11238;48.730;11.566;2023-02-05T03:30:59;-3.10;99.90
22145;DHT22;11238;48.730;11.566;2023-02-05T03:33:37;-3.10;99.90
22145;DHT22;11238;48.730;11.566;2023-02-05T03:36:13;-3.00;99.90
22145;DHT22;11238;48.730;11.566;2023-02-05T03:39:23;-3.10;99.90
22145;DHT22;11238;48.730;11.566;2023-02-05T03:41:35;-3.10;99.90
22145;DHT22;11238;48.730;11.566;2023-02-05T03:52:33;-3.20;99.90
22145;DHT22;11238;48.730;11.566;2023-02-05T03:55:11;-3.20;99.90
22145;DHT22;11238;48.730;11.566;2023-02-05T03:58:08;-3.30;99.90
22145;DHT22;11238;48.730;11.566;2023-02-05T04:00:36;-3.30;99.90
22145;DHT22;11238;48.730;11.566;2023-02-05T04:03:03;-3.40;99.90
22145;DHT22;11238;48.730;11.566;2023-02-05T04:05:31;-3.50;99.90
22145;DHT22;11238;48.730;11.566;2023-02-05T04:07:59;-3.50;99.90
22145;DHT22;11238;48.730;11.566;2023-02-05T04:10:30;-3.50;99.90
22145;DHT22;11238;48.730;11.566;2023-02-05T04:12:59;-3.50;99.90
22145;DHT22;11238;48.730;11.566;2023-02-05T04:15:24;-3.50;99.90
22145;DHT22;11238;48.730;11.566;2023-02-05T04:17:54;-3.60;99.90
22145;DHT22;11238;48.730;11.566;2023-02-05T04:20:24;-3.60;99.90
22145;DHT22;11238;48.730;11.566;2023-02-05T04:22:49;-3.70;99.90
22145;DHT22;11238;48.730;11.566;2023-02-05T04:25:16;-3.80;99.90
22145;DHT22;11238;48.730;11.566;2023-02-05T04:27:42;-3.80;99.90
22145;DHT22;11238;48.730;11.566;2023-02-05T04:30:09;-3.80;99.90
22145;DHT22;11238;48.730;11.566;2023-02-05T04:32:39;-3.80;99.90
22145;DHT22;11238;48.730;11.566;2023-02-05T04:35:05;-3.80;99.90
22145;DHT22;11238;48.730;11.566;2023-02-05T04:37:31;-3.70;99.90
22145;DHT22;11238;48.730;11.566;2023-02-05T04:39:57;-3.70;99.90
22145;DHT22;11238;48.730;11.566;2023-02-05T04:42:23;-3.70;99.90
22145;DHT22;11238;48.730;11.566;2023-02-05T04:44:49;-3.70;99.90
22145;DHT22;11238;48.730;11.566;2023-02-05T04:47:17;-3.70;99.90
22145;DHT22;11238;48.730;11.566;2023-02-05T04:49:43;-3.70;99.90
22145;DHT22;11238;48.730;11.566;2023-02-05T04:52:09;-3.70;99.90
22145;DHT22;11238;48.730;11.566;2023-02-05T04:54:38;-3.70;99.90
22145;DHT22;11238;48.730;11.566;2023-02-05T04:57:04;-3.70;99.90
22145;DHT22;11238;48.730;11.566;2023-02-05T04:59:30;-3.70;99.90
22145;DHT22;11238;48.730;11.566;2023-02-05T05:01:57;-3.70;99.90
22145;DHT22;11238;48.730;11.566;2023-02-05T05:04:24;-3.70;99.90
22145;DHT22;11238;48.730;11.566;2023-02-05T05:06:50;-3.80;99.90
22145;DHT22;11238;48.730;11.566;2023-02-05T05:09:16;-3.80;99.90
22145;DHT22;11238;48.730;11.566;2023-02-05T05:11:41;-3.80;99.90
22145;DHT22;11238;48.730;11.566;2023-02-05T05:14:07;-3.90;99.90
22145;DHT22;11238;48.730;11.566;2023-02-05T05:16:33;-3.90;99.90
22145;DHT22;11238;48.730;11.566;2023-02-05T05:18:59;-3.90;99.90
22145;DHT22;11238;48.730;11.566;2023-02-05T05:21:24;-3.90;99.90
22145;DHT22;11238;48.730;11.566;2023-02-05T05:23:50;-3.80;99.90
22145;DHT22;11238;48.730;11.566;2023-02-05T05:26:16;-3.80;99.90
22145;DHT22;11238;48.730;11.566;2023-02-05T05:28:42;-3.80;99.90
22145;DHT22;11238;48.730;11.566;2023-02-05T05:31:15;-3.80;99.90
22145;DHT22;11238;48.730;11.566;2023-02-05T05:33:44;-3.70;99.90
22145;DHT22;11238;48.730;11.566;2023-02-05T05:36:11;-3.80;99.90
22145;DHT22;11238;48.730;11.566;2023-02-05T05:38:37;-3.70;99.90
22145;DHT22;11238;48.730;11.566;2023-02-05T05:41:03;-3.70;99.90
22145;DHT22;11238;48.730;11.566;2023-02-05T05:43:50;-3.70;99.90
22145;DHT22;11238;48.730;11.566;2023-02-05T05:46:19;-3.70;99.90
22145;DHT22;11238;48.730;11.566;2023-02-05T05:48:54;-3.70;99.90
22145;DHT22;11238;48.730;11.566;2023-02-05T05:51:21;-3.80;99.90
22145;DHT22;11238;48.730;11.566;2023-02-05T05:53:48;-3.80;99.90
22145;DHT22;11238;48.730;11.566;2023-02-05T05:56:14;-3.80;99.90
22145;DHT22;11238;48.730;11.566;2023-02-05T05:58:40;-3.80;99.90
22145;DHT22;11238;48.730;11.566;2023-02-05T06:01:08;-3.80;99.90
22145;DHT22;11238;48.730;11.566;2023-02-05T06:03:34;-3.80;99.90
22145;DHT22;11238;48.730;11.566;2023-02-05T06:06:01;-3.90;99.90
22145;DHT22;11238;48.730;11.566;2023-02-05T06:08:28;-3.90;99.90
22145;DHT22;11238;48.730;11.566;2023-02-05T06:10:54;-4.00;99.90
22145;DHT22;11238;48.730;11.566;2023-02-05T06:13:20;-4.00;99.90
22145;DHT22;11238;48.730;11.566;2023-02-05T06:15:46;-4.00;99.90
22145;DHT22;11238;48.730;11.566;2023-02-05T06:18:14;-4.00;99.90
22145;DHT22;11238;48.730;11.566;2023-02-05T06:20:40;-4.00;99.90
22145;DHT22;11238;48.730;11.566;2023-02-05T06:23:28;-4.00;99.90
22145;DHT22;11238;48.730;11.566;2023-02-05T06:25:54;-4.00;99.90
22145;DHT22;11238;48.730;11.566;2023-02-05T06:28:20;-4.20;99.90
22145;DHT22;11238;48.730;11.566;2023-02-05T06:30:46;-4.20;99.90
22145;DHT22;11238;48.730;11.566;2023-02-05T06:33:11;-4.20;99.90
22145;DHT22;11238;48.730;11.566;2023-02-05T06:35:38;-4.20;99.90
22145;DHT22;11238;48.730;11.566;2023-02-05T06:38:04;-4.20;99.90
22145;DHT22;11238;48.730;11.566;2023-02-05T06:40:30;-4.10;99.90
22145;DHT22;11238;48.730;11.566;2023-02-05T06:42:56;-4.20;99.90
22145;DHT22;11238;48.730;11.566;2023-02-05T06:45:22;-4.10;99.90
22145;DHT22;11238;48.730;11.566;2023-02-05T06:47:48;-4.30;99.90
22145;DHT22;11238;48.730;11.566;2023-02-05T06:50:14;-4.30;99.90
22145;DHT22;11238;48.730;11.566;2023-02-05T06:52:40;-4.20;99.90
22145;DHT22;11238;48.730;11.566;2023-02-05T06:55:07;-4.20;99.90
22145;DHT22;11238;48.730;11.566;2023-02-05T06:57:33;-4.20;99.90
22145;DHT22;11238;48.730;11.566;2023-02-05T06:59:59;-4.20;99.90
22145;DHT22;11238;48.730;11.566;2023-02-05T07:02:24;-4.20;99.90
22145;DHT22;11238;48.730;11.566;2023-02-05T07:04:50;-4.30;99.90
22145;DHT22;11238;48.730;11.566;2023-02-05T07:07:16;-4.30;99.90
22145;DHT22;11238;48.730;11.566;2023-02-05T07:09:42;-4.40;99.90
22145;DHT22;11238;48.730;11.566;2023-02-05T07:12:08;-4.30;99.90
22145;DHT22;11238;48.730;11.566;2023-02-05T07:14:38;-4.30;99.90
22145;DHT22;11238;48.730;11.566;2023-02-05T07:17:04;-4.30;99.90
22145;DHT22;11238;48.730;11.566;2023-02-05T07:19:30;-4.20;99.90
22145;DHT22;11238;48.730;11.566;2023-02-05T07:21:56;-4.20;99.90
22145;DHT22;11238;48.730;11.566;2023-02-05T07:24:22;-4.10;99.90
22145;DHT22;11238;48.730;11.566;2023-02-05T07:26:48;-4.10;99.90
22145;DHT22;11238;48.730;11.566;2023-02-05T07:29:14;-4.00;99.90
22145;DHT22;11238;48.730;11.566;2023-02-05T07:31:40;-3.90;99.90
22145;DHT22;11238;48.730;11.566;2023-02-05T07:34:05;-3.80;99.90
22145;DHT22;11238;48.730;11.566;2023-02-05T07:36:31;-3.80;99.90
22145;DHT22;11238;48.730;11.566;2023-02-05T07:38:57;-3.70;99.90
22145;DHT22;11238;48.730;11.566;2023-02-05T07:41:23;-3.80;99.90
22145;DHT22;11238;48.730;11.566;2023-02-05T07:43:52;-3.70;99.90
22145;DHT22;11238;48.730;11.566;2023-02-05T07:46:19;-3.60;99.90
22145;DHT22;11238;48.730;11.566;2023-02-05T07:48:45;-3.50;99.90
22145;DHT22;11238;48.730;11.566;2023-02-05T07:51:22;-3.40;99.90
22145;DHT22;11238;48.730;11.566;2023-02-05T07:53:49;-3.30;99.90
22145;DHT22;11238;48.730;11.566;2023-02-05T07:56:16;-3.30;99.90
22145;DHT22;11238;48.730;11.566;2023-02-05T07:58:42;-3.10;99.90
22145;DHT22;11238;48.730;11.566;2023-02-05T08:01:08;-3.00;99.90
22145;DHT22;11238;48.730;11.566;2023-02-05T08:03:34;-2.90;99.90
22145;DHT22;11238;48.730;11.566;2023-02-05T08:06:05;-2.80;99.90
22145;DHT22;11238;48.730;11.566;2023-02-05T08:08:32;-2.70;99.90
22145;DHT22;11238;48.730;11.566;2023-02-05T08:11:01;-2.60;99.90
22145;DHT22;11238;48.730;11.566;2023-02-05T08:13:27;-2.50;99.90
22145;DHT22;11238;48.730;11.566;2023-02-05T08:15:53;-2.40;99.90
22145;DHT22;11238;48.730;11.566;2023-02-05T08:18:20;-2.30;99.90
22145;DHT22;11238;48.730;11.566;2023-02-05T08:20:46;-2.20;99.90
22145;DHT22;11238;48.730;11.566;2023-02-05T08:23:12;-2.10;99.90
22145;DHT22;11238;48.730;11.566;2023-02-05T08:25:38;-2.00;99.90
22145;DHT22;11238;48.730;11.566;2023-02-05T08:28:04;-1.90;99.90
22145;DHT22;11238;48.730;11.566;2023-02-05T08:30:31;-1.80;99.90
22145;DHT22;11238;48.730;11.566;2023-02-05T08:32:56;-1.60;99.90
22145;DHT22;11238;48.730;11.566;2023-02-05T08:35:22;-1.50;99.90
22145;DHT22;11238;48.730;11.566;2023-02-05T08:37:48;-1.50;99.90
22145;DHT22;11238;48.730;11.566;2023-02-05T08:40:13;-1.40;99.90
22145;DHT22;11238;48.730;11.566;2023-02-05T08:42:39;-1.30;99.90
22145;DHT22;11238;48.730;11.566;2023-02-05T08:45:06;-1.10;99.90
22145;DHT22;11238;48.730;11.566;2023-02-05T08:47:36;-1.00;99.90
22145;DHT22;11238;48.730;11.566;2023-02-05T08:50:05;-0.80;99.90
22145;DHT22;11238;48.730;11.566;2023-02-05T08:52:32;-0.70;99.90
22145;DHT22;11238;48.730;11.566;2023-02-05T08:54:57;-0.50;99.90
22145;DHT22;11238;48.730;11.566;2023-02-05T08:57:28;-0.40;99.90
22145;DHT22;11238;48.730;11.566;2023-02-05T08:59:55;-0.40;99.90
22145;DHT22;11238;48.730;11.566;2023-02-05T09:02:21;-0.20;99.90
22145;DHT22;11238;48.730;11.566;2023-02-05T09:04:47;-0.10;99.90
22145;DHT22;11238;48.730;11.566;2023-02-05T09:07:14;0.00;99.90
22145;DHT22;11238;48.730;11.566;2023-02-05T09:09:40;0.10;99.90
22145;DHT22;11238;48.730;11.566;2023-02-05T09:15:52;0.40;99.90
22145;DHT22;11238;48.730;11.566;2023-02-05T09:18:19;0.70;99.90
22145;DHT22;11238;48.730;11.566;2023-02-05T09:20:47;1.00;99.90
22145;DHT22;11238;48.730;11.566;2023-02-05T09:23:15;1.20;99.90
22145;DHT22;11238;48.730;11.566;2023-02-05T09:25:42;1.40;99.90
22145;DHT22;11238;48.730;11.566;2023-02-05T09:28:10;1.50;99.90
22145;DHT22;11238;48.730;11.566;2023-02-05T09:30:44;1.70;99.90
22145;DHT22;11238;48.730;11.566;2023-02-05T09:33:10;1.80;99.90
22145;DHT22;11238;48.730;11.566;2023-02-05T09:35:37;2.20;99.90
22145;DHT22;11238;48.730;11.566;2023-02-05T09:38:03;2.40;99.90
22145;DHT22;11238;48.730;11.566;2023-02-05T09:41:02;2.50;99.90
22145;DHT22;11238;48.730;11.566;2023-02-05T09:46:15;2.50;99.90
22145;DHT22;11238;48.730;11.566;2023-02-05T09:48:53;2.60;99.90
22145;DHT22;11238;48.730;11.566;2023-02-05T09:51:44;2.70;99.90
22145;DHT22;11238;48.730;11.566;2023-02-05T09:54:30;3.20;99.90
22145;DHT22;11238;48.730;11.566;2023-02-05T09:57:01;3.60;99.90
22145;DHT22;11238;48.730;11.566;2023-02-05T09:59:28;3.70;99.90
22145;DHT22;11238;48.730;11.566;2023-02-05T10:01:57;3.80;99.90
22145;DHT22;11238;48.730;11.566;2023-02-05T10:04:25;3.70;99.90
22145;DHT22;11238;48.730;11.566;2023-02-05T10:07:15;3.80;99.90
22145;DHT22;11238;48.730;11.566;2023-02-05T10:10:15;4.20;99.90
22145;DHT22;11238;48.730;11.566;2023-02-05T10:18:46;4.80;99.90
22145;DHT22;11238;48.730;11.566;2023-02-05T10:21:53;4.80;99.90
22145;DHT22;11238;48.730;11.566;2023-02-05T10:24:43;4.20;99.90
22145;DHT22;11238;48.730;11.566;2023-02-05T10:27:18;3.90;99.90
22145;DHT22;11238;48.730;11.566;2023-02-05T10:32:21;3.50;99.90
22145;DHT22;11238;48.730;11.566;2023-02-05T10:35:23;3.40;99.90
22145;DHT22;11238;48.730;11.566;2023-02-05T10:37:54;3.20;99.90
22145;DHT22;11238;48.730;11.566;2023-02-05T10:40:40;3.10;99.90
22145;DHT22;11238;48.730;11.566;2023-02-05T10:43:41;3.00;99.90
22145;DHT22;11238;48.730;11.566;2023-02-05T10:46:11;2.90;99.90
22145;DHT22;11238;48.730;11.566;2023-02-05T10:51:10;2.80;99.90
22145;DHT22;11238;48.730;11.566;2023-02-05T10:53:38;2.80;99.90
22145;DHT22;11238;48.730;11.566;2023-02-05T10:56:05;2.90;99.90
22145;DHT22;11238;48.730;11.566;2023-02-05T10:59:01;2.80;99.90
22145;DHT22;11238;48.730;11.566;2023-02-05T11:01:35;2.90;99.90
22145;DHT22;11238;48.730;11.566;2023-02-05T11:04:06;3.00;99.90
22145;DHT22;11238;48.730;11.566;2023-02-05T11:06:40;3.10;99.90
22145;DHT22;11238;48.730;11.566;2023-02-05T11:12:56;3.20;99.90
22145;DHT22;11238;48.730;11.566;2023-02-05T11:15:26;3.30;99.90
22145;DHT22;11238;48.730;11.566;2023-02-05T11:17:58;3.30;99.90
22145;DHT22;11238;48.730;11.566;2023-02-05T11:20:48;3.30;99.90
22145;DHT22;11238;48.730;11.566;2023-02-05T11:23:26;3.30;99.90
22145;DHT22;11238;48.730;11.566;2023-02-05T11:25:54;3.10;99.90
22145;DHT22;11238;48.730;11.566;2023-02-05T11:30:49;2.90;99.90
22145;DHT22;11238;48.730;11.566;2023-02-05T11:36:02;3.10;99.90
22145;DHT22;11238;48.730;11.566;2023-02-05T11:38:44;3.00;99.90
22145;DHT22;11238;48.730;11.566;2023-02-05T11:41:14;3.00;99.90
22145;DHT22;11238;48.730;11.566;2023-02-05T11:43:50;3.10;99.90
22145;DHT22;11238;48.730;11.566;2023-02-05T11:46:22;3.10;99.90
22145;DHT22;11238;48.730;11.566;2023-02-05T11:48:58;3.00;99.90
22145;DHT22;11238;48.730;11.566;2023-02-05T11:51:43;3.00;99.90
22145;DHT22;11238;48.730;11.566;2023-02-05T11:54:26;3.10;99.90
22145;DHT22;11238;48.730;11.566;2023-02-05T11:57:32;3.00;99.90
22145;DHT22;11238;48.730;11.566;2023-02-05T12:02:35;3.00;99.90
22145;DHT22;11238;48.730;11.566;2023-02-05T12:07:55;3.00;99.90
22145;DHT22;11238;48.730;11.566;2023-02-05T12:10:25;3.00;99.90
22145;DHT22;11238;48.730;11.566;2023-02-05T12:15:53;2.90;99.90
22145;DHT22;11238;48.730;11.566;2023-02-05T12:26:07;3.00;99.90
22145;DHT22;11238;48.730;11.566;2023-02-05T12:31:50;3.10;99.90
22145;DHT22;11238;48.730;11.566;2023-02-05T12:34:41;3.10;99.90
22145;DHT22;11238;48.730;11.566;2023-02-05T12:39:53;3.10;99.90
22145;DHT22;11238;48.730;11.566;2023-02-05T12:45:46;3.10;99.90
22145;DHT22;11238;48.730;11.566;2023-02-05T12:51:34;3.20;99.90
22145;DHT22;11238;48.730;11.566;2023-02-05T12:59:38;3.10;99.90
22145;DHT22;11238;48.730;11.566;2023-02-05T13:06:07;3.20;99.90
22145;DHT22;11238;48.730;11.566;2023-02-05T13:08:46;3.10;99.90
22145;DHT22;11238;48.730;11.566;2023-02-05T13:11:19;3.10;99.90
22145;DHT22;11238;48.730;11.566;2023-02-05T13:14:16;3.10;99.90
22145;DHT22;11238;48.730;11.566;2023-02-05T13:16:50;3.10;99.90
22145;DHT22;11238;48.730;11.566;2023-02-05T13:19:36;3.10;99.90
22145;DHT22;11238;48.730;11.566;2023-02-05T13:22:25;3.20;99.90
22145;DHT22;11238;48.730;11.566;2023-02-05T13:28:03;3.20;99.90
22145;DHT22;11238;48.730;11.566;2023-02-05T13:30:54;3.20;99.90
22145;DHT22;11238;48.730;11.566;2023-02-05T13:33:22;3.20;99.90
22145;DHT22;11238;48.730;11.566;2023-02-05T13:58:09;3.30;99.90
22145;DHT22;11238;48.730;11.566;2023-02-05T14:00:39;3.30;99.90
22145;DHT22;11238;48.730;11.566;2023-02-05T14:03:07;3.30;99.90
22145;DHT22;11238;48.730;11.566;2023-02-05T14:05:40;3.30;99.90
22145;DHT22;11238;48.730;11.566;2023-02-05T14:08:20;3.40;99.90
22145;DHT22;11238;48.730;11.566;2023-02-05T14:10:56;3.40;99.90
22145;DHT22;11238;48.730;11.566;2023-02-05T14:13:25;3.40;99.90
22145;DHT22;11238;48.730;11.566;2023-02-05T14:15:56;3.40;99.90
22145;DHT22;11238;48.730;11.566;2023-02-05T14:24:01;3.40;99.90
22145;DHT22;11238;48.730;11.566;2023-02-05T14:26:51;3.50;99.90
22145;DHT22;11238;48.730;11.566;2023-02-05T14:29:40;3.50;99.90
22145;DHT22;11238;48.730;11.566;2023-02-05T14:32:11;3.50;99.90
22145;DHT22;11238;48.730;11.566;2023-02-05T14:37:25;3.50;99.90
22145;DHT22;11238;48.730;11.566;2023-02-05T14:39:53;3.50;99.90
22145;DHT22;11238;48.730;11.566;2023-02-05T14:42:21;3.50;99.90
22145;DHT22;11238;48.730;11.566;2023-02-05T14:44:53;3.50;99.90
22145;DHT22;11238;48.730;11.566;2023-02-05T14:47:26;3.50;99.90
22145;DHT22;11238;48.730;11.566;2023-02-05T14:50:07;3.50;99.90
22145;DHT22;11238;48.730;11.566;2023-02-05T14:52:39;3.50;99.90
22145;DHT22;11238;48.730;11.566;2023-02-05T14:57:50;3.50;99.90
22145;DHT22;11238;48.730;11.566;2023-02-05T15:00:34;3.50;99.90
22145;DHT22;11238;48.730;11.566;2023-02-05T15:08:24;3.30;99.90
22145;DHT22;11238;48.730;11.566;2023-02-05T15:11:02;3.30;99.90
22145;DHT22;11238;48.730;11.566;2023-02-05T15:13:30;3.30;99.90
22145;DHT22;11238;48.730;11.566;2023-02-05T15:21:41;3.30;99.90
22145;DHT22;11238;48.730;11.566;2023-02-05T15:24:17;3.20;99.90
22145;DHT22;11238;48.730;11.566;2023-02-05T15:29:44;3.20;99.90
22145;DHT22;11238;48.730;11.566;2023-02-05T15:32:31;3.20;99.90
22145;DHT22;11238;48.730;11.566;2023-02-05T15:35:05;3.20;99.90
22145;DHT22;11238;48.730;11.566;2023-02-05T15:37:33;3.20;99.90
22145;DHT22;11238;48.730;11.566;2023-02-05T15:42:44;3.20;99.90
22145;DHT22;11238;48.730;11.566;2023-02-05T15:45:26;3.20;99.90
22145;DHT22;11238;48.730;11.566;2023-02-05T15:50:29;3.20;99.90
22145;DHT22;11238;48.730;11.566;2023-02-05T15:52:56;3.20;99.90
22145;DHT22;11238;48.730;11.566;2023-02-05T15:55:22;3.20;99.90
22145;DHT22;11238;48.730;11.566;2023-02-05T15:58:02;3.20;99.90
22145;DHT22;11238;48.730;11.566;2023-02-05T16:00:31;3.20;99.90
22145;DHT22;11238;48.730;11.566;2023-02-05T16:03:00;3.20;99.90
22145;DHT22;11238;48.730;11.566;2023-02-05T16:05:30;3.10;99.90
22145;DHT22;11238;48.730;11.566;2023-02-05T16:07:56;3.10;99.90
22145;DHT22;11238;48.730;11.566;2023-02-05T16:10:25;3.10;99.90
22145;DHT22;11238;48.730;11.566;2023-02-05T16:13:03;3.10;99.90
22145;DHT22;11238;48.730;11.566;2023-02-05T16:15:33;3.10;99.90
22145;DHT22;11238;48.730;11.566;2023-02-05T16:18:05;3.10;99.90
22145;DHT22;11238;48.730;11.566;2023-02-05T16:20:39;3.00;99.90
22145;DHT22;11238;48.730;11.566;2023-02-05T16:23:10;3.00;99.90
22145;DHT22;11238;48.730;11.566;2023-02-05T16:28:32;3.00;99.90
22145;DHT22;11238;48.730;11.566;2023-02-05T16:31:00;2.90;99.90
22145;DHT22;11238;48.730;11.566;2023-02-05T16:33:34;2.90;99.90
22145;DHT22;11238;48.730;11.566;2023-02-05T16:36:04;2.90;99.90
22145;DHT22;11238;48.730;11.566;2023-02-05T16:38:32;2.90;99.90
22145;DHT22;11238;48.730;11.566;2023-02-05T16:41:17;2.90;99.90
22145;DHT22;11238;48.730;11.566;2023-02-05T16:43:43;2.90;99.90
22145;DHT22;11238;48.730;11.566;2023-02-05T16:51:50;2.90;99.90
22145;DHT22;11238;48.730;11.566;2023-02-05T16:56:49;2.90;99.90
22145;DHT22;11238;48.730;11.566;2023-02-05T16:59:21;2.90;99.90
22145;DHT22;11238;48.730;11.566;2023-02-05T17:01:49;2.80;99.90
22145;DHT22;11238;48.730;11.566;2023-02-05T17:06:55;2.80;99.90
22145;DHT22;11238;48.730;11.566;2023-02-05T17:09:33;2.80;99.90
22145;DHT22;11238;48.730;11.566;2023-02-05T17:15:00;2.70;99.90
22145;DHT22;11238;48.730;11.566;2023-02-05T17:17:28;2.70;99.90
22145;DHT22;11238;48.730;11.566;2023-02-05T17:20:22;2.70;99.90
22145;DHT22;11238;48.730;11.566;2023-02-05T17:23:05;2.70;99.90
22145;DHT22;11238;48.730;11.566;2023-02-05T17:28:26;2.60;99.90
22145;DHT22;11238;48.730;11.566;2023-02-05T17:30:55;2.50;99.90
22145;DHT22;11238;48.730;11.566;2023-02-05T17:33:25;2.50;99.90
22145;DHT22;11238;48.730;11.566;2023-02-05T17:35:51;2.40;99.90
22145;DHT22;11238;48.730;11.566;2023-02-05T17:38:18;2.30;99.90
22145;DHT22;11238;48.730;11.566;2023-02-05T17:40:46;2.30;99.90
22145;DHT22;11238;48.730;11.566;2023-02-05T17:43:12;2.30;99.90
22145;DHT22;11238;48.730;11.566;2023-02-05T17:45:39;2.30;99.90
22145;DHT22;11238;48.730;11.566;2023-02-05T17:48:06;2.20;99.90
22145;DHT22;11238;48.730;11.566;2023-02-05T17:50:33;2.20;99.90
22145;DHT22;11238;48.730;11.566;2023-02-05T17:53:00;2.10;99.90
22145;DHT22;11238;48.730;11.566;2023-02-05T17:55:26;2.10;99.90
22145;DHT22;11238;48.730;11.566;2023-02-05T17:57:51;2.10;99.90
22145;DHT22;11238;48.730;11.566;2023-02-05T18:00:21;2.00;99.90
22145;DHT22;11238;48.730;11.566;2023-02-05T18:02:48;1.90;99.90
22145;DHT22;11238;48.730;11.566;2023-02-05T18:05:14;1.90;99.90
22145;DHT22;11238;48.730;11.566;2023-02-05T18:07:47;1.80;99.90
22145;DHT22;11238;48.730;11.566;2023-02-05T18:10:18;1.80;99.90
22145;DHT22;11238;48.730;11.566;2023-02-05T18:12:44;1.90;99.90
22145;DHT22;11238;48.730;11.566;2023-02-05T18:15:13;1.80;99.90
22145;DHT22;11238;48.730;11.566;2023-02-05T18:17:39;1.90;99.90
22145;DHT22;11238;48.730;11.566;2023-02-05T18:20:06;1.90;99.90
22145;DHT22;11238;48.730;11.566;2023-02-05T18:22:33;1.90;99.90